sensor_id;sensor_type;location;lat;lon;timestamp;P1;durP1;ratioP1;P2;durP2;ratioP2
80694;SDS011;70059;42.702;23.312;2024-03-08T00:02:22;7.50;;;6.80;;
80694;SDS011;70059;42.702;23.312;2024-03-08T00:04:48;7.45;;;6.75;;
80694;SDS011;70059;42.702;23.312;2024-03-08T00:07:14;7.78;;;7.07;;
80694;SDS011;70059;42.702;23.312;2024-03-08T00:09:40;7.68;;;6.97;;
80694;SDS011;70059;42.702;23.312;2024-03-08T00:12:05;8.30;;;7.50;;
80694;SDS011;70059;42.702;23.312;2024-03-08T00:14:31;6.47;;;5.95;;
80694;SDS011;70059;42.702;23.312;2024-03-08T00:16:58;6.10;;;5.60;;
80694;SDS011;70059;42.702;23.312;2024-03-08T00:19:24;5.78;;;5.28;;
80694;SDS011;70059;42.702;23.312;2024-03-08T00:21:49;5.28;;;4.90;;
80694;SDS011;70059;42.702;23.312;2024-03-08T00:24:15;5.10;;;4.70;;
80694;SDS011;70059;42.702;23.312;2024-03-08T00:26:40;5.15;;;4.78;;
80694;SDS011;70059;42.702;23.312;2024-03-08T00:29:07;4.90;;;4.60;;
80694;SDS011;70059;42.702;23.312;2024-03-08T00:31:32;5.40;;;5.00;;
80694;SDS011;70059;42.702;23.312;2024-03-08T00:33:58;5.00;;;4.65;;
80694;SDS011;70059;42.702;23.312;2024-03-08T00:36:24;5.15;;;4.75;;
80694;SDS011;70059;42.702;23.312;2024-03-08T00:38:50;5.05;;;4.65;;
80694;SDS011;70059;42.702;23.312;2024-03-08T00:41:16;5.15;;;4.75;;
80694;SDS011;70059;42.702;23.312;2024-03-08T00:43:41;5.38;;;4.97;;
80694;SDS011;70059;42.702;23.312;2024-03-08T00:46:07;5.55;;;5.10;;
80694;SDS011;70059;42.702;23.312;2024-03-08T00:48:33;5.40;;;5.00;;
80694;SDS011;70059;42.702;23.312;2024-03-08T00:50:58;6.35;;;5.85;;
80694;SDS011;70059;42.702;23.312;2024-03-08T00:53:24;6.55;;;5.90;;
80694;SDS011;70059;42.702;23.312;2024-03-08T00:55:49;5.95;;;5.53;;
80694;SDS011;70059;42.702;23.312;2024-03-08T00:58:15;5.53;;;5.13;;
80694;SDS011;70059;42.702;23.312;2024-03-08T01:00:41;5.60;;;5.20;;
80694;SDS011;70059;42.702;23.312;2024-03-08T01:03:06;5.55;;;5.15;;
80694;SDS011;70059;42.702;23.312;2024-03-08T01:05:32;5.50;;;5.10;;
80694;SDS011;70059;42.702;23.312;2024-03-08T01:08:00;5.80;;;5.30;;
80694;SDS011;70059;42.702;23.312;2024-03-08T01:10:28;5.47;;;5.07;;
80694;SDS011;70059;42.702;23.312;2024-03-08T01:12:53;5.90;;;5.40;;
80694;SDS011;70059;42.702;23.312;2024-03-08T01:15:21;5.50;;;5.10;;
80694;SDS011;70059;42.702;23.312;2024-03-08T01:17:47;5.50;;;5.10;;
80694;SDS011;70059;42.702;23.312;2024-03-08T01:20:13;5.65;;;5.22;;
80694;SDS011;70059;42.702;23.312;2024-03-08T01:22:39;5.93;;;5.43;;
80694;SDS011;70059;42.702;23.312;2024-03-08T01:25:06;5.32;;;4.93;;
80694;SDS011;70059;42.702;23.312;2024-03-08T01:27:32;5.85;;;5.38;;
80694;SDS011;70059;42.702;23.312;2024-03-08T01:29:57;5.88;;;5.47;;
80694;SDS011;70059;42.702;23.312;2024-03-08T01:32:24;5.40;;;5.00;;
80694;SDS011;70059;42.702;23.312;2024-03-08T01:34:50;5.63;;;5.22;;
80694;SDS011;70059;42.702;23.312;2024-03-08T01:37:16;5.85;;;5.35;;
80694;SDS011;70059;42.702;23.312;2024-03-08T01:39:41;5.63;;;5.22;;
80694;SDS011;70059;42.702;23.312;2024-03-08T01:42:07;5.60;;;5.10;;
80694;SDS011;70059;42.702;23.312;2024-03-08T01:44:33;5.40;;;5.00;;
80694;SDS011;70059;42.702;23.312;2024-03-08T01:46:59;5.80;;;5.30;;
80694;SDS011;70059;42.702;23.312;2024-03-08T01:49:25;5.40;;;5.00;;
80694;SDS011;70059;42.702;23.312;2024-03-08T01:51:53;5.70;;;5.25;;
80694;SDS011;70059;42.702;23.312;2024-03-08T01:54:21;6.63;;;6.03;;
80694;SDS011;70059;42.702;23.312;2024-03-08T01:56:48;6.88;;;6.10;;
80694;SDS011;70059;42.702;23.312;2024-03-08T01:59:14;6.30;;;5.80;;
80694;SDS011;70059;42.702;23.312;2024-03-08T02:01:42;6.20;;;5.60;;
80694;SDS011;70059;42.702;23.312;2024-03-08T02:04:08;6.80;;;6.20;;
80694;SDS011;70059;42.702;23.312;2024-03-08T02:06:34;6.20;;;5.70;;
80694;SDS011;70059;42.702;23.312;2024-03-08T02:09:00;5.85;;;5.45;;
80694;SDS011;70059;42.702;23.312;2024-03-08T02:11:26;6.35;;;5.80;;
80694;SDS011;70059;42.702;23.312;2024-03-08T02:13:51;6.50;;;5.90;;
80694;SDS011;70059;42.702;23.312;2024-03-08T02:16:21;6.25;;;5.75;;
80694;SDS011;70059;42.702;23.312;2024-03-08T02:18:48;6.20;;;5.70;;
80694;SDS011;70059;42.702;23.312;2024-03-08T02:21:14;5.53;;;5.13;;
80694;SDS011;70059;42.702;23.312;2024-03-08T02:23:46;5.97;;;5.47;;
80694;SDS011;70059;42.702;23.312;2024-03-08T02:26:11;5.20;;;4.80;;
80694;SDS011;70059;42.702;23.312;2024-03-08T02:28:37;4.82;;;4.50;;
80694;SDS011;70059;42.702;23.312;2024-03-08T02:31:03;4.97;;;4.68;;
80694;SDS011;70059;42.702;23.312;2024-03-08T02:33:33;5.10;;;4.70;;
80694;SDS011;70059;42.702;23.312;2024-03-08T02:35:58;4.80;;;4.40;;
80694;SDS011;70059;42.702;23.312;2024-03-08T02:38:25;4.78;;;4.38;;
80694;SDS011;70059;42.702;23.312;2024-03-08T02:40:51;4.60;;;4.30;;
80694;SDS011;70059;42.702;23.312;2024-03-08T02:43:18;4.55;;;4.25;;
80694;SDS011;70059;42.702;23.312;2024-03-08T02:45:44;4.82;;;4.53;;
80694;SDS011;70059;42.702;23.312;2024-03-08T02:48:11;5.00;;;4.70;;
80694;SDS011;70059;42.702;23.312;2024-03-08T02:50:37;5.00;;;4.60;;
80694;SDS011;70059;42.702;23.312;2024-03-08T02:53:05;4.82;;;4.53;;
80694;SDS011;70059;42.702;23.312;2024-03-08T02:55:31;5.03;;;4.63;;
80694;SDS011;70059;42.702;23.312;2024-03-08T02:57:59;6.40;;;5.90;;
80694;SDS011;70059;42.702;23.312;2024-03-08T03:00:25;6.90;;;6.30;;
80694;SDS011;70059;42.702;23.312;2024-03-08T03:02:51;6.60;;;6.10;;
80694;SDS011;70059;42.702;23.312;2024-03-08T03:05:20;6.70;;;6.10;;
80694;SDS011;70059;42.702;23.312;2024-03-08T03:07:46;6.30;;;5.80;;
80694;SDS011;70059;42.702;23.312;2024-03-08T03:10:13;6.63;;;6.03;;
80694;SDS011;70059;42.702;23.312;2024-03-08T03:12:42;6.25;;;5.75;;
80694;SDS011;70059;42.702;23.312;2024-03-08T03:15:10;5.57;;;5.18;;
80694;SDS011;70059;42.702;23.312;2024-03-08T03:17:36;5.30;;;4.90;;
80694;SDS011;70059;42.702;23.312;2024-03-08T03:20:07;5.07;;;4.68;;
80694;SDS011;70059;42.702;23.312;2024-03-08T03:22:38;5.18;;;4.88;;
80694;SDS011;70059;42.702;23.312;2024-03-08T03:25:06;5.40;;;5.00;;
80694;SDS011;70059;42.702;23.312;2024-03-08T03:27:32;4.97;;;4.63;;
80694;SDS011;70059;42.702;23.312;2024-03-08T03:29:58;4.70;;;4.40;;
80694;SDS011;70059;42.702;23.312;2024-03-08T03:32:44;5.90;;;4.20;;
80694;SDS011;70059;42.702;23.312;2024-03-08T03:35:12;5.18;;;4.78;;
80694;SDS011;70059;42.702;23.312;2024-03-08T03:37:39;4.90;;;4.60;;
80694;SDS011;70059;42.702;23.312;2024-03-08T03:40:07;5.00;;;4.60;;
80694;SDS011;70059;42.702;23.312;2024-03-08T03:42:34;5.40;;;4.90;;
80694;SDS011;70059;42.702;23.312;2024-03-08T03:45:07;5.22;;;4.80;;
80694;SDS011;70059;42.702;23.312;2024-03-08T03:47:34;5.60;;;5.20;;
80694;SDS011;70059;42.702;23.312;2024-03-08T03:50:00;5.38;;;4.97;;
80694;SDS011;70059;42.702;23.312;2024-03-08T03:52:27;5.25;;;4.78;;
80694;SDS011;70059;42.702;23.312;2024-03-08T03:54:53;5.30;;;4.90;;
80694;SDS011;70059;42.702;23.312;2024-03-08T03:57:19;4.90;;;4.55;;
80694;SDS011;70059;42.702;23.312;2024-03-08T03:59:45;5.40;;;5.00;;
80694;SDS011;70059;42.702;23.312;2024-03-08T04:02:12;5.30;;;4.85;;
80694;SDS011;70059;42.702;23.312;2024-03-08T04:04:38;5.65;;;5.15;;
80694;SDS011;70059;42.702;23.312;2024-03-08T04:07:04;6.28;;;5.68;;
80694;SDS011;70059;42.702;23.312;2024-03-08T04:09:30;5.70;;;5.20;;
80694;SDS011;70059;42.702;23.312;2024-03-08T04:11:55;5.47;;;4.97;;
80694;SDS011;70059;42.702;23.312;2024-03-08T04:14:21;8.27;;;5.78;;
80694;SDS011;70059;42.702;23.312;2024-03-08T04:16:48;5.90;;;5.30;;
80694;SDS011;70059;42.702;23.312;2024-03-08T04:19:13;5.95;;;5.45;;
80694;SDS011;70059;42.702;23.312;2024-03-08T04:21:39;5.88;;;5.18;;
80694;SDS011;70059;42.702;23.312;2024-03-08T04:24:07;6.65;;;5.70;;
80694;SDS011;70059;42.702;23.312;2024-03-08T04:26:34;8.95;;;5.78;;
80694;SDS011;70059;42.702;23.312;2024-03-08T04:29:02;6.22;;;5.68;;
80694;SDS011;70059;42.702;23.312;2024-03-08T04:31:28;7.97;;;5.55;;
80694;SDS011;70059;42.702;23.312;2024-03-08T04:33:56;5.45;;;4.95;;
80694;SDS011;70059;42.702;23.312;2024-03-08T04:36:22;5.90;;;5.30;;
80694;SDS011;70059;42.702;23.312;2024-03-08T04:38:48;17.77;;;11.13;;
80694;SDS011;70059;42.702;23.312;2024-03-08T04:41:14;11.95;;;8.52;;
80694;SDS011;70059;42.702;23.312;2024-03-08T04:43:39;8.90;;;7.95;;
80694;SDS011;70059;42.702;23.312;2024-03-08T04:46:05;6.97;;;6.05;;
80694;SDS011;70059;42.702;23.312;2024-03-08T04:48:31;8.35;;;6.43;;
80694;SDS011;70059;42.702;23.312;2024-03-08T04:50:57;7.10;;;5.70;;
80694;SDS011;70059;42.702;23.312;2024-03-08T04:53:23;6.32;;;5.68;;
80694;SDS011;70059;42.702;23.312;2024-03-08T04:55:48;7.45;;;6.28;;
80694;SDS011;70059;42.702;23.312;2024-03-08T04:58:14;6.65;;;6.03;;
80694;SDS011;70059;42.702;23.312;2024-03-08T05:00:40;8.70;;;6.88;;
80694;SDS011;70059;42.702;23.312;2024-03-08T05:03:06;7.25;;;5.95;;
80694;SDS011;70059;42.702;23.312;2024-03-08T05:05:31;8.88;;;7.20;;
80694;SDS011;70059;42.702;23.312;2024-03-08T05:07:58;9.23;;;7.57;;
80694;SDS011;70059;42.702;23.312;2024-03-08T05:10:23;6.93;;;6.22;;
80694;SDS011;70059;42.702;23.312;2024-03-08T05:12:50;7.57;;;6.63;;
80694;SDS011;70059;42.702;23.312;2024-03-08T05:15:17;7.68;;;6.40;;
80694;SDS011;70059;42.702;23.312;2024-03-08T05:17:47;8.20;;;6.72;;
80694;SDS011;70059;42.702;23.312;2024-03-08T05:20:12;9.77;;;7.45;;
80694;SDS011;70059;42.702;23.312;2024-03-08T05:22:38;9.27;;;7.45;;
80694;SDS011;70059;42.702;23.312;2024-03-08T05:25:08;10.48;;;7.50;;
80694;SDS011;70059;42.702;23.312;2024-03-08T05:27:47;12.35;;;8.05;;
80694;SDS011;70059;42.702;23.312;2024-03-08T05:30:21;11.20;;;7.75;;
80694;SDS011;70059;42.702;23.312;2024-03-08T05:36:03;9.82;;;7.55;;
80694;SDS011;70059;42.702;23.312;2024-03-08T05:38:31;9.75;;;7.53;;
80694;SDS011;70059;42.702;23.312;2024-03-08T05:41:00;11.30;;;7.65;;
80694;SDS011;70059;42.702;23.312;2024-03-08T05:43:26;15.35;;;9.95;;
80694;SDS011;70059;42.702;23.312;2024-03-08T05:45:52;11.30;;;8.00;;
80694;SDS011;70059;42.702;23.312;2024-03-08T05:48:19;9.90;;;7.57;;
80694;SDS011;70059;42.702;23.312;2024-03-08T05:50:47;11.45;;;8.13;;
80694;SDS011;70059;42.702;23.312;2024-03-08T05:56:19;12.77;;;8.68;;
80694;SDS011;70059;42.702;23.312;2024-03-08T05:59:27;12.23;;;8.70;;
80694;SDS011;70059;42.702;23.312;2024-03-08T06:01:56;12.18;;;8.40;;
80694;SDS011;70059;42.702;23.312;2024-03-08T06:04:31;11.93;;;7.90;;
80694;SDS011;70059;42.702;23.312;2024-03-08T06:07:11;11.13;;;9.00;;
80694;SDS011;70059;42.702;23.312;2024-03-08T06:09:39;11.38;;;9.00;;
80694;SDS011;70059;42.702;23.312;2024-03-08T06:16:11;10.57;;;8.90;;
80694;SDS011;70059;42.702;23.312;2024-03-08T06:19:03;13.60;;;9.55;;
80694;SDS011;70059;42.702;23.312;2024-03-08T06:28:23;9.73;;;8.73;;
80694;SDS011;70059;42.702;23.312;2024-03-08T06:31:15;9.55;;;7.95;;
80694;SDS011;70059;42.702;23.312;2024-03-08T06:36:47;9.93;;;8.93;;
80694;SDS011;70059;42.702;23.312;2024-03-08T06:39:36;9.85;;;8.52;;
80694;SDS011;70059;42.702;23.312;2024-03-08T06:45:31;13.90;;;10.20;;
80694;SDS011;70059;42.702;23.312;2024-03-08T06:55:32;12.02;;;8.60;;
80694;SDS011;70059;42.702;23.312;2024-03-08T07:01:13;11.38;;;8.90;;
80694;SDS011;70059;42.702;23.312;2024-03-08T07:04:03;13.75;;;11.18;;
80694;SDS011;70059;42.702;23.312;2024-03-08T07:06:57;12.80;;;9.98;;
80694;SDS011;70059;42.702;23.312;2024-03-08T07:13:06;12.70;;;10.23;;
80694;SDS011;70059;42.702;23.312;2024-03-08T07:15:38;9.30;;;8.35;;
80694;SDS011;70059;42.702;23.312;2024-03-08T07:18:04;10.90;;;9.70;;
80694;SDS011;70059;42.702;23.312;2024-03-08T07:20:31;10.48;;;9.38;;
80694;SDS011;70059;42.702;23.312;2024-03-08T07:22:57;11.10;;;8.98;;
80694;SDS011;70059;42.702;23.312;2024-03-08T07:25:26;14.82;;;10.88;;
80694;SDS011;70059;42.702;23.312;2024-03-08T07:28:03;11.35;;;9.52;;
80694;SDS011;70059;42.702;23.312;2024-03-08T07:30:39;12.55;;;9.55;;
80694;SDS011;70059;42.702;23.312;2024-03-08T07:33:08;11.77;;;10.00;;
80694;SDS011;70059;42.702;23.312;2024-03-08T07:35:41;13.67;;;10.27;;
80694;SDS011;70059;42.702;23.312;2024-03-08T07:38:10;10.90;;;9.65;;
80694;SDS011;70059;42.702;23.312;2024-03-08T07:40:44;12.10;;;9.52;;
80694;SDS011;70059;42.702;23.312;2024-03-08T07:43:20;12.60;;;9.98;;
80694;SDS011;70059;42.702;23.312;2024-03-08T07:45:48;13.98;;;10.95;;
80694;SDS011;70059;42.702;23.312;2024-03-08T07:48:14;13.60;;;10.45;;
80694;SDS011;70059;42.702;23.312;2024-03-08T07:50:43;12.82;;;9.45;;
80694;SDS011;70059;42.702;23.312;2024-03-08T07:53:18;11.90;;;9.68;;
80694;SDS011;70059;42.702;23.312;2024-03-08T07:59:21;13.68;;;9.95;;
80694;SDS011;70059;42.702;23.312;2024-03-08T08:01:52;16.05;;;11.27;;
80694;SDS011;70059;42.702;23.312;2024-03-08T08:04:27;13.60;;;10.80;;
80694;SDS011;70059;42.702;23.312;2024-03-08T08:07:04;16.92;;;10.75;;
80694;SDS011;70059;42.702;23.312;2024-03-08T08:09:33;12.55;;;10.85;;
80694;SDS011;70059;42.702;23.312;2024-03-08T08:12:02;13.00;;;10.40;;
80694;SDS011;70059;42.702;23.312;2024-03-08T08:14:31;11.77;;;9.63;;
80694;SDS011;70059;42.702;23.312;2024-03-08T08:17:07;13.73;;;9.13;;
80694;SDS011;70059;42.702;23.312;2024-03-08T08:19:33;9.85;;;7.88;;
80694;SDS011;70059;42.702;23.312;2024-03-08T08:22:00;10.73;;;8.80;;
80694;SDS011;70059;42.702;23.312;2024-03-08T08:24:36;10.35;;;8.05;;
80694;SDS011;70059;42.702;23.312;2024-03-08T08:40:32;9.00;;;7.85;;
80694;SDS011;70059;42.702;23.312;2024-03-08T08:43:08;8.05;;;7.32;;
80694;SDS011;70059;42.702;23.312;2024-03-08T08:45:34;8.63;;;7.93;;
80694;SDS011;70059;42.702;23.312;2024-03-08T08:48:13;10.82;;;9.40;;
80694;SDS011;70059;42.702;23.312;2024-03-08T08:50:49;10.98;;;9.88;;
80694;SDS011;70059;42.702;23.312;2024-03-08T08:53:20;8.38;;;7.57;;
80694;SDS011;70059;42.702;23.312;2024-03-08T08:58:58;15.93;;;11.80;;
80694;SDS011;70059;42.702;23.312;2024-03-08T09:04:25;10.70;;;8.00;;
80694;SDS011;70059;42.702;23.312;2024-03-08T09:06:53;10.10;;;9.10;;
80694;SDS011;70059;42.702;23.312;2024-03-08T09:09:19;13.57;;;9.20;;
80694;SDS011;70059;42.702;23.312;2024-03-08T09:11:47;10.05;;;8.00;;
80694;SDS011;70059;42.702;23.312;2024-03-08T09:14:14;8.73;;;7.93;;
80694;SDS011;70059;42.702;23.312;2024-03-08T09:16:40;9.25;;;8.45;;
80694;SDS011;70059;42.702;23.312;2024-03-08T09:19:06;8.25;;;7.43;;
80694;SDS011;70059;42.702;23.312;2024-03-08T09:21:38;9.88;;;8.45;;
80694;SDS011;70059;42.702;23.312;2024-03-08T09:24:05;18.35;;;11.38;;
80694;SDS011;70059;42.702;23.312;2024-03-08T09:26:32;9.90;;;9.10;;
80694;SDS011;70059;42.702;23.312;2024-03-08T09:28:58;10.20;;;9.30;;
80694;SDS011;70059;42.702;23.312;2024-03-08T09:31:24;9.93;;;9.13;;
80694;SDS011;70059;42.702;23.312;2024-03-08T09:33:51;11.27;;;8.95;;
80694;SDS011;70059;42.702;23.312;2024-03-08T09:36:17;10.98;;;10.07;;
80694;SDS011;70059;42.702;23.312;2024-03-08T09:38:43;8.88;;;8.10;;
80694;SDS011;70059;42.702;23.312;2024-03-08T09:41:12;9.45;;;8.68;;
80694;SDS011;70059;42.702;23.312;2024-03-08T09:46:49;13.52;;;11.02;;
80694;SDS011;70059;42.702;23.312;2024-03-08T09:49:24;11.25;;;8.95;;
80694;SDS011;70059;42.702;23.312;2024-03-08T09:51:52;7.45;;;6.93;;
80694;SDS011;70059;42.702;23.312;2024-03-08T09:54:18;8.40;;;7.70;;
80694;SDS011;70059;42.702;23.312;2024-03-08T09:56:46;9.15;;;8.27;;
80694;SDS011;70059;42.702;23.312;2024-03-08T09:59:14;11.25;;;9.82;;
80694;SDS011;70059;42.702;23.312;2024-03-08T10:02:12;9.27;;;8.48;;
80694;SDS011;70059;42.702;23.312;2024-03-08T10:07:10;10.45;;;7.68;;
80694;SDS011;70059;42.702;23.312;2024-03-08T10:09:41;7.25;;;6.65;;
80694;SDS011;70059;42.702;23.312;2024-03-08T10:12:12;8.40;;;7.70;;
80694;SDS011;70059;42.702;23.312;2024-03-08T10:14:38;8.02;;;7.00;;
80694;SDS011;70059;42.702;23.312;2024-03-08T10:17:16;9.10;;;8.20;;
80694;SDS011;70059;42.702;23.312;2024-03-08T10:19:58;9.38;;;8.18;;
80694;SDS011;70059;42.702;23.312;2024-03-08T10:22:49;10.52;;;9.50;;
80694;SDS011;70059;42.702;23.312;2024-03-08T10:25:21;8.00;;;7.30;;
80694;SDS011;70059;42.702;23.312;2024-03-08T10:28:22;7.63;;;6.90;;
80694;SDS011;70059;42.702;23.312;2024-03-08T10:30:50;8.55;;;7.75;;
80694;SDS011;70059;42.702;23.312;2024-03-08T10:33:19;8.50;;;7.80;;
80694;SDS011;70059;42.702;23.312;2024-03-08T10:35:51;7.38;;;6.68;;
80694;SDS011;70059;42.702;23.312;2024-03-08T10:38:24;10.82;;;7.95;;
80694;SDS011;70059;42.702;23.312;2024-03-08T10:41:01;10.63;;;8.05;;
80694;SDS011;70059;42.702;23.312;2024-03-08T10:50:20;7.88;;;7.13;;
80694;SDS011;70059;42.702;23.312;2024-03-08T10:52:50;8.57;;;7.78;;
80694;SDS011;70059;42.702;23.312;2024-03-08T10:55:19;9.27;;;8.32;;
80694;SDS011;70059;42.702;23.312;2024-03-08T10:57:46;10.05;;;9.15;;
80694;SDS011;70059;42.702;23.312;2024-03-08T11:00:36;8.75;;;7.95;;
80694;SDS011;70059;42.702;23.312;2024-03-08T11:05:39;13.13;;;7.93;;
80694;SDS011;70059;42.702;23.312;2024-03-08T11:08:18;8.30;;;7.10;;
80694;SDS011;70059;42.702;23.312;2024-03-08T11:10:48;12.05;;;8.25;;
80694;SDS011;70059;42.702;23.312;2024-03-08T11:13:34;8.32;;;7.47;;
80694;SDS011;70059;42.702;23.312;2024-03-08T11:16:11;8.70;;;6.85;;
80694;SDS011;70059;42.702;23.312;2024-03-08T11:19:01;10.20;;;7.57;;
80694;SDS011;70059;42.702;23.312;2024-03-08T11:24:12;8.68;;;7.18;;
80694;SDS011;70059;42.702;23.312;2024-03-08T11:26:42;10.52;;;6.25;;
80694;SDS011;70059;42.702;23.312;2024-03-08T11:35:20;7.53;;;6.80;;
80694;SDS011;70059;42.702;23.312;2024-03-08T11:37:48;6.75;;;6.20;;
80694;SDS011;70059;42.702;23.312;2024-03-08T11:40:19;8.75;;;7.93;;
80694;SDS011;70059;42.702;23.312;2024-03-08T11:42:48;6.50;;;6.00;;
80694;SDS011;70059;42.702;23.312;2024-03-08T11:45:16;7.65;;;6.97;;
80694;SDS011;70059;42.702;23.312;2024-03-08T11:47:44;7.10;;;6.70;;
80694;SDS011;70059;42.702;23.312;2024-03-08T11:50:13;6.55;;;6.10;;
80694;SDS011;70059;42.702;23.312;2024-03-08T11:52:43;7.38;;;6.28;;
80694;SDS011;70059;42.702;23.312;2024-03-08T11:55:09;7.65;;;6.95;;
80694;SDS011;70059;42.702;23.312;2024-03-08T11:57:38;7.05;;;6.45;;
80694;SDS011;70059;42.702;23.312;2024-03-08T12:00:04;6.95;;;6.38;;
80694;SDS011;70059;42.702;23.312;2024-03-08T12:02:33;12.45;;;6.60;;
80694;SDS011;70059;42.702;23.312;2024-03-08T12:05:06;13.52;;;12.13;;
80694;SDS011;70059;42.702;23.312;2024-03-08T12:07:34;9.93;;;8.13;;
80694;SDS011;70059;42.702;23.312;2024-03-08T12:19:19;11.10;;;6.95;;
80694;SDS011;70059;42.702;23.312;2024-03-08T12:21:44;10.00;;;6.85;;
80694;SDS011;70059;42.702;23.312;2024-03-08T12:24:20;10.10;;;7.78;;
80694;SDS011;70059;42.702;23.312;2024-03-08T12:26:56;7.55;;;6.90;;
80694;SDS011;70059;42.702;23.312;2024-03-08T12:29:28;7.20;;;6.57;;
80694;SDS011;70059;42.702;23.312;2024-03-08T12:31:55;13.55;;;10.48;;
80694;SDS011;70059;42.702;23.312;2024-03-08T12:34:32;10.00;;;7.35;;
80694;SDS011;70059;42.702;23.312;2024-03-08T12:36:58;7.38;;;6.80;;
80694;SDS011;70059;42.702;23.312;2024-03-08T12:39:24;7.68;;;6.97;;
80694;SDS011;70059;42.702;23.312;2024-03-08T12:41:53;7.95;;;7.05;;
80694;SDS011;70059;42.702;23.312;2024-03-08T12:44:19;7.38;;;6.78;;
80694;SDS011;70059;42.702;23.312;2024-03-08T12:46:53;7.63;;;6.90;;
80694;SDS011;70059;42.702;23.312;2024-03-08T12:49:28;7.72;;;7.10;;
80694;SDS011;70059;42.702;23.312;2024-03-08T12:51:55;8.75;;;8.05;;
80694;SDS011;70059;42.702;23.312;2024-03-08T12:54:21;8.18;;;7.18;;
80694;SDS011;70059;42.702;23.312;2024-03-08T12:56:53;7.88;;;7.07;;
80694;SDS011;70059;42.702;23.312;2024-03-08T12:59:18;9.60;;;7.93;;
80694;SDS011;70059;42.702;23.312;2024-03-08T13:01:50;8.18;;;7.25;;
80694;SDS011;70059;42.702;23.312;2024-03-08T13:04:26;8.43;;;7.65;;
80694;SDS011;70059;42.702;23.312;2024-03-08T13:06:57;8.13;;;7.53;;
80694;SDS011;70059;42.702;23.312;2024-03-08T13:09:24;8.48;;;7.60;;
80694;SDS011;70059;42.702;23.312;2024-03-08T13:11:52;8.30;;;7.25;;
80694;SDS011;70059;42.702;23.312;2024-03-08T13:14:23;8.23;;;7.53;;
80694;SDS011;70059;42.702;23.312;2024-03-08T13:16:52;7.90;;;7.30;;
80694;SDS011;70059;42.702;23.312;2024-03-08T13:19:30;8.00;;;7.30;;
80694;SDS011;70059;42.702;23.312;2024-03-08T13:21:59;8.35;;;7.45;;
80694;SDS011;70059;42.702;23.312;2024-03-08T13:24:29;7.97;;;7.20;;
80694;SDS011;70059;42.702;23.312;2024-03-08T13:26:57;7.30;;;6.80;;
80694;SDS011;70059;42.702;23.312;2024-03-08T13:29:26;7.93;;;7.13;;
80694;SDS011;70059;42.702;23.312;2024-03-08T13:31:52;12.95;;;7.97;;
80694;SDS011;70059;42.702;23.312;2024-03-08T13:34:20;10.73;;;7.28;;
80694;SDS011;70059;42.702;23.312;2024-03-08T13:37:15;9.13;;;7.03;;
80694;SDS011;70059;42.702;23.312;2024-03-08T13:39:43;7.53;;;6.88;;
80694;SDS011;70059;42.702;23.312;2024-03-08T13:42:10;7.50;;;6.90;;
80694;SDS011;70059;42.702;23.312;2024-03-08T13:44:44;8.15;;;7.40;;
80694;SDS011;70059;42.702;23.312;2024-03-08T13:47:11;7.60;;;7.00;;
80694;SDS011;70059;42.702;23.312;2024-03-08T13:49:41;11.45;;;9.43;;
80694;SDS011;70059;42.702;23.312;2024-03-08T13:52:20;6.60;;;5.72;;
80694;SDS011;70059;42.702;23.312;2024-03-08T13:54:49;7.63;;;6.82;;
80694;SDS011;70059;42.702;23.312;2024-03-08T13:57:17;6.72;;;6.13;;
80694;SDS011;70059;42.702;23.312;2024-03-08T13:59:43;8.20;;;7.50;;
80694;SDS011;70059;42.702;23.312;2024-03-08T14:02:09;7.55;;;6.93;;
80694;SDS011;70059;42.702;23.312;2024-03-08T14:04:38;7.30;;;6.68;;
80694;SDS011;70059;42.702;23.312;2024-03-08T14:07:07;10.65;;;8.18;;
80694;SDS011;70059;42.702;23.312;2024-03-08T14:09:34;9.57;;;7.40;;
80694;SDS011;70059;42.702;23.312;2024-03-08T14:12:05;12.75;;;8.48;;
80694;SDS011;70059;42.702;23.312;2024-03-08T14:14:32;9.90;;;8.05;;
80694;SDS011;70059;42.702;23.312;2024-03-08T14:17:05;7.82;;;6.65;;
80694;SDS011;70059;42.702;23.312;2024-03-08T14:19:32;10.85;;;7.65;;
80694;SDS011;70059;42.702;23.312;2024-03-08T14:22:02;8.68;;;7.00;;
80694;SDS011;70059;42.702;23.312;2024-03-08T14:24:30;6.63;;;5.57;;
80694;SDS011;70059;42.702;23.312;2024-03-08T14:26:56;11.60;;;6.40;;
80694;SDS011;70059;42.702;23.312;2024-03-08T14:29:24;10.20;;;7.78;;
80694;SDS011;70059;42.702;23.312;2024-03-08T14:31:54;6.97;;;6.28;;
80694;SDS011;70059;42.702;23.312;2024-03-08T14:34:23;7.97;;;7.15;;
80694;SDS011;70059;42.702;23.312;2024-03-08T14:36:54;12.63;;;7.75;;
80694;SDS011;70059;42.702;23.312;2024-03-08T14:39:21;11.77;;;7.20;;
80694;SDS011;70059;42.702;23.312;2024-03-08T14:41:51;8.17;;;7.20;;
80694;SDS011;70059;42.702;23.312;2024-03-08T14:44:21;8.07;;;7.20;;
80694;SDS011;70059;42.702;23.312;2024-03-08T14:46:57;12.52;;;7.63;;
80694;SDS011;70059;42.702;23.312;2024-03-08T14:49:25;14.98;;;8.80;;
80694;SDS011;70059;42.702;23.312;2024-03-08T14:51:54;8.30;;;7.30;;
80694;SDS011;70059;42.702;23.312;2024-03-08T14:54:23;10.52;;;7.43;;
80694;SDS011;70059;42.702;23.312;2024-03-08T14:56:49;9.75;;;8.43;;
80694;SDS011;70059;42.702;23.312;2024-03-08T14:59:17;12.95;;;8.90;;
80694;SDS011;70059;42.702;23.312;2024-03-08T15:01:44;11.70;;;9.20;;
80694;SDS011;70059;42.702;23.312;2024-03-08T15:04:10;9.80;;;8.70;;
80694;SDS011;70059;42.702;23.312;2024-03-08T15:06:42;15.00;;;8.85;;
80694;SDS011;70059;42.702;23.312;2024-03-08T15:09:11;12.13;;;8.75;;
80694;SDS011;70059;42.702;23.312;2024-03-08T15:11:39;14.77;;;7.40;;
80694;SDS011;70059;42.702;23.312;2024-03-08T15:14:07;15.88;;;8.73;;
80694;SDS011;70059;42.702;23.312;2024-03-08T15:16:39;21.02;;;11.57;;
80694;SDS011;70059;42.702;23.312;2024-03-08T15:19:08;13.15;;;8.30;;
80694;SDS011;70059;42.702;23.312;2024-03-08T15:21:38;9.30;;;8.13;;
80694;SDS011;70059;42.702;23.312;2024-03-08T15:24:10;16.48;;;8.40;;
80694;SDS011;70059;42.702;23.312;2024-03-08T15:26:43;8.52;;;6.82;;
80694;SDS011;70059;42.702;23.312;2024-03-08T15:29:14;12.90;;;8.05;;
80694;SDS011;70059;42.702;23.312;2024-03-08T15:31:43;10.20;;;7.30;;
80694;SDS011;70059;42.702;23.312;2024-03-08T15:34:14;15.73;;;8.63;;
80694;SDS011;70059;42.702;23.312;2024-03-08T15:36:44;15.50;;;8.55;;
80694;SDS011;70059;42.702;23.312;2024-03-08T15:39:12;13.82;;;8.80;;
80694;SDS011;70059;42.702;23.312;2024-03-08T15:41:41;13.00;;;7.88;;
80694;SDS011;70059;42.702;23.312;2024-03-08T15:44:11;10.25;;;7.10;;
80694;SDS011;70059;42.702;23.312;2024-03-08T15:46:41;17.08;;;9.98;;
80694;SDS011;70059;42.702;23.312;2024-03-08T15:49:11;20.88;;;11.15;;
80694;SDS011;70059;42.702;23.312;2024-03-08T15:51:41;12.18;;;8.55;;
80694;SDS011;70059;42.702;23.312;2024-03-08T15:54:06;12.18;;;8.00;;
80694;SDS011;70059;42.702;23.312;2024-03-08T15:56:32;11.02;;;7.57;;
80694;SDS011;70059;42.702;23.312;2024-03-08T15:58:59;14.60;;;8.70;;
80694;SDS011;70059;42.702;23.312;2024-03-08T16:01:31;15.27;;;8.55;;
80694;SDS011;70059;42.702;23.312;2024-03-08T16:03:59;10.02;;;7.85;;
80694;SDS011;70059;42.702;23.312;2024-03-08T16:06:24;11.13;;;8.45;;
80694;SDS011;70059;42.702;23.312;2024-03-08T16:08:50;11.30;;;8.13;;
80694;SDS011;70059;42.702;23.312;2024-03-08T16:11:16;9.07;;;8.02;;
80694;SDS011;70059;42.702;23.312;2024-03-08T16:13:43;11.75;;;7.20;;
80694;SDS011;70059;42.702;23.312;2024-03-08T16:16:09;9.65;;;7.68;;